Stormwatcher's Retreat Logo




                  Temp     Hi    Low   Out    Dew  Wind  Wind   Wind    Hi    Hi   Wind   Heat    THW   THSW                Rain  Solar   Solar Hi Solar   UV    UV    Hi     Heat    Cool    In     In    In     In     In   In Air          Wind  Wind    ISS   Arc.
  Date    Time     Out   Temp   Temp   Hum    Pt. Speed   Dir    Run Speed   Dir  Chill  Index  Index  Index   Bar    Rain  Rate   Rad.  Energy    Rad.  Index  Dose   UV     D-D     D-D    Temp   Hum    Dew   Heat    EMC Density     ET   Samp   Tx   Recept  Int.
------------------------------------------------------------------------------------------------------------------------------------------------------------------------------------------------------------------------------------------------------------------------
 1/20/22 12:10a   52.1   53.1   52.0    94   50.4   6.0     S   1.00  10.0     S   50.1   52.4   50.4   47.7  30.376  0.00  0.00     0     0.00      0     0.0  0.00   0.0   0.090   0.000   70.7    50   51.1   69.2   9.25  .0750    0.000   203    7    100.0   10 
 1/20/22 12:20a   51.8   52.0   51.7    95   50.4   7.0     S   1.17  10.0   SSE   49.4   52.1   49.7   47.0  30.381  0.00  0.00     0     0.00      0     0.0  0.00   0.0   0.092   0.000   70.6    50   51.1   69.1   9.25  .0750    0.000   205    7    100.0   10 
 1/20/22 12:30a   51.7   51.9   51.7    94   50.0   7.0     S   1.17  12.0     S   49.2   52.0   49.5   46.8  30.383  0.00  0.00     0     0.00      0     0.0  0.00   0.0   0.092   0.000   70.5    50   51.0   68.9   9.25  .0751    0.000   204    7    100.0   10 
 1/20/22 12:40a   52.4   52.4   51.7    94   50.7   6.0     S   1.00  11.0     S   50.5   52.7   50.8   48.1  30.379  0.00  0.00     0     0.00      0     0.0  0.00   0.0   0.087   0.000   70.5    50   51.0   68.9   9.25  .0751    0.000   203    7    100.0   10 
 1/20/22 12:50a   53.2   53.3   52.4    92   50.9   7.0     S   1.17  12.0     S   51.0   53.4   51.2   48.5  30.387  0.00  0.00     0     0.00      0     0.0  0.00   0.0   0.082   0.000   70.4    50   50.9   68.8   9.25  .0751    0.000   203    7    100.0   10 
 1/20/22  1:00a   52.5   53.2   52.5    93   50.5   7.0     S   1.17  11.0     S   50.2   52.7   50.4   47.7  30.388  0.00  0.00     0     0.00      0     0.0  0.00   0.0   0.087   0.000   70.4    50   50.9   68.8   9.25  .0751    0.000   204    7    100.0   10 
 1/20/22  1:10a   52.8   52.8   52.3    94   51.1   7.0     S   1.17  12.0     S   50.6   53.1   50.9   48.2  30.385  0.00  0.00     0     0.00      0     0.0  0.00   0.0   0.085   0.000   70.3    50   50.8   68.7   9.25  .0751    0.000   203    7    100.0   10 
 1/20/22  1:20a   53.6   53.6   52.8    94   51.9   5.0     S   0.83   9.0   SSE   52.4   53.8   52.6   49.9  30.388  0.00  0.00     0     0.00      0     0.0  0.00   0.0   0.079   0.000   70.3    50   50.8   68.7   9.25  .0751    0.000   203    7    100.0   10 
 1/20/22  1:30a   54.0   54.0   53.6    94   52.3   5.0     S   0.83  11.0   SSE   52.9   54.2   53.1   50.5  30.384  0.00  0.00     0     0.00      0     0.0  0.00   0.0   0.076   0.000   70.2    50   50.7   68.6   9.25  .0751    0.000   204    7    100.0   10 
 1/20/22  1:40a   54.3   54.3   54.0    95   52.9   5.0     S   0.83  10.0   SSE   53.3   54.5   53.5   50.9  30.378  0.00  0.00     0     0.00      0     0.0  0.00   0.0   0.074   0.000   70.2    50   50.7   68.6   9.25  .0751    0.000   202    7    100.0   10 
 1/20/22  1:50a   54.4   54.4   54.2    95   53.0   5.0     S   0.83  10.0     S   53.4   54.6   53.6   51.0  30.376  0.00  0.00     0     0.00      0     0.0  0.00   0.0   0.074   0.000   70.1    50   50.6   68.4   9.25  .0751    0.000   204    7    100.0   10 
 1/20/22  2:00a   54.6   54.7   54.4    94   52.9   5.0     S   0.83   9.0   SSE   53.6   54.8   53.8   51.2  30.372  0.00  0.00     0     0.00      0     0.0  0.00   0.0   0.072   0.000   70.1    50   50.6   68.4   9.25  .0751    0.000   204    7    100.0   10 
 1/20/22  2:10a   54.7   54.8   54.5    94   53.0   4.0     S   0.67   7.0     S   54.3   54.9   54.5   51.9  30.373  0.00  0.00     0     0.00      0     0.0  0.00   0.0   0.072   0.000   70.0    50   50.5   68.3   9.25  .0751    0.000   203    7    100.0   10 
 1/20/22  2:20a   54.5   54.7   54.5    94   52.8   3.0     S   0.50   8.0    SE   54.5   54.7   54.7   52.1  30.376  0.00  0.00     0     0.00      0     0.0  0.00   0.0   0.073   0.000   70.0    50   50.5   68.3   9.25  .0751    0.000   204    7    100.0   10 
 1/20/22  2:30a   54.5   54.5   54.3    94   52.8   3.0     S   0.50   7.0   SSE   54.5   54.7   54.7   52.1  30.375  0.00  0.00     0     0.00      0     0.0  0.00   0.0   0.073   0.000   70.0    50   50.5   68.3   9.25  .0751    0.000   203    7    100.0   10 
 1/20/22  2:40a   54.8   54.9   54.4    93   52.8   4.0     S   0.67   8.0   SSE   54.4   55.0   54.6   52.0  30.373  0.00  0.00     0     0.00      0     0.0  0.00   0.0   0.071   0.000   69.9    50   50.4   68.2   9.25  .0751    0.000   204    7    100.0   10 
 1/20/22  2:50a   54.6   54.8   54.6    92   52.3   4.0     S   0.67   9.0     S   54.2   54.7   54.3   51.7  30.377  0.00  0.00     0     0.00      0     0.0  0.00   0.0   0.072   0.000   69.9    50   50.4   68.2   9.25  .0752    0.000   205    7    100.0   10 
 1/20/22  3:00a   53.1   54.6   52.9    95   51.7   5.0     S   0.83   9.0   SSE   51.8   53.4   52.1   49.4  30.381  0.00  0.00     0     0.00      0     0.0  0.00   0.0   0.083   0.000   69.9    50   50.4   68.2   9.25  .0752    0.000   203    7    100.0   10 
 1/20/22  3:10a   52.5   53.1   52.4    95   51.1   7.0     S   1.17  12.0     S   50.2   52.8   50.5   47.8  30.379  0.00  0.00     0     0.00      0     0.0  0.00   0.0   0.087   0.000   69.8    50   50.3   68.2   9.25  .0752    0.000   203    7    100.0   10 
 1/20/22  3:20a   52.4   52.5   52.2    96   51.3   7.0     S   1.17  13.0   SSE   50.1   52.7   50.4   47.7  30.378  0.00  0.00     0     0.00      0     0.0  0.00   0.0   0.087   0.000   69.8    50   50.3   68.2   9.25  .0752    0.000   203    7    100.0   10 
 1/20/22  3:30a   52.6   52.9   52.4    95   51.2   6.0     S   1.00  11.0   SSE   50.7   52.9   51.0   48.3  30.382  0.00  0.00     0     0.00      0     0.0  0.00   0.0   0.086   0.000   69.7    50   50.2   68.1   9.26  .0752    0.000   204    7    100.0   10 
 1/20/22  3:40a   52.2   52.6   52.1    96   51.1   9.0     S   1.50  14.0   SSE   48.4   52.5   48.7   46.2  30.385  0.00  0.00     0     0.00      0     0.0  0.00   0.0   0.089   0.000   69.7    50   50.2   68.1   9.26  .0752    0.000   204    7    100.0   10 
 1/20/22  3:50a   52.2   52.5   52.1    96   51.1   8.0     S   1.33  12.0     S   49.1   52.5   49.4   46.8  30.390  0.00  0.00     0     0.00      0     0.0  0.00   0.0   0.089   0.000   69.7    50   50.2   68.1   9.26  .0752    0.000   203    7    100.0   10 
 1/20/22  4:00a   52.2   52.5   52.0    96   51.1   7.0     S   1.17  11.0     S   49.8   52.5   50.1   47.4  30.390  0.00  0.00     0     0.00      0     0.0  0.00   0.0   0.089   0.000   69.6    50   50.1   68.0   9.26  .0752    0.000   204    7    100.0   10 
 1/20/22  4:10a   52.2   52.3   52.1    96   51.1   7.0     S   1.17  10.0   SSE   49.8   52.5   50.1   47.4  30.395  0.00  0.00     0     0.00      0     0.0  0.00   0.0   0.089   0.000   69.6    50   50.1   68.0   9.26  .0753    0.000   204    7    100.0   10 
 1/20/22  4:20a   52.6   52.6   52.1    96   51.5   7.0     S   1.17  11.0   SSE   50.3   52.9   50.6   47.9  30.394  0.00  0.00     0     0.00      0     0.0  0.00   0.0   0.086   0.000   69.5    50   50.0   67.9   9.26  .0753    0.000   202    7    100.0   10 
 1/20/22  4:30a   53.0   53.0   52.6    94   51.3   6.0     S   1.00  10.0     S   51.2   53.3   51.5   48.8  30.387  0.00  0.00     0     0.00      0     0.0  0.00   0.0   0.083   0.000   69.5    50   50.0   67.9   9.26  .0753    0.000   204    7    100.0   10 
 1/20/22  4:40a   53.1   53.2   53.0    94   51.4   3.0     S   0.50   6.0     S   53.1   53.4   53.4   50.7  30.381  0.00  0.00     0     0.00      0     0.0  0.00   0.0   0.083   0.000   69.4    50   49.9   67.9   9.26  .0753    0.000   202    7    100.0   10 
 1/20/22  4:50a   53.3   53.4   53.1    93   51.3   3.0     S   0.50   7.0   SSE   53.3   53.5   53.5   50.8  30.378  0.00  0.00     0     0.00      0     0.0  0.00   0.0   0.081   0.000   69.4    50   49.9   67.9   9.26  .0752    0.000   204    7    100.0   10 
 1/20/22  5:00a   53.4   53.4   53.3    92   51.1   3.0   SSE   0.50   7.0   SSE   53.4   53.6   53.6   50.9  30.354  0.00  0.00     0     0.00      0     0.0  0.00   0.0   0.081   0.000   69.3    50   49.9   67.8   9.26  .0752    0.000   204    7    100.0   10 
 1/20/22  5:10a   53.6   53.7   53.3    90   50.7   4.0     S   0.67   9.0     S   53.0   53.7   53.1   50.4  30.361  0.00  0.00     0     0.00      0     0.0  0.00   0.0   0.079   0.000   69.3    50   49.9   67.8   9.26  .0752    0.000   202    7    100.0   10 
 1/20/22  5:20a   53.9   53.9   53.6    89   50.7   6.0     S   1.00  13.0     S   52.3   54.0   52.4   49.7  30.357  0.00  0.00     0     0.00      0     0.0  0.00   0.0   0.077   0.000   69.2    50   49.8   67.7   9.27  .0752    0.000   203    7    100.0   10 
 1/20/22  5:30a   53.9   54.0   53.9    89   50.7   4.0     S   0.67   8.0   SSE   53.4   54.0   53.5   50.8  30.355  0.00  0.00     0     0.00      0     0.0  0.00   0.0   0.077   0.000   69.2    50   49.8   67.7   9.27  .0752    0.000   203    7    100.0   10 
 1/20/22  5:40a   53.9   54.0   53.7    89   50.7   6.0     S   1.00  10.0     S   52.3   54.0   52.4   49.7  30.380  0.00  0.00     0     0.00      0     0.0  0.00   0.0   0.077   0.000   69.2    50   49.8   67.7   9.27  .0753    0.000   201    7    100.0   10 
 1/20/22  5:50a   53.2   54.0   53.2    91   50.6   7.0     S   1.17  12.0     S   51.0   53.3   51.1   48.4  30.391  0.00  0.00     0     0.00      0     0.0  0.00   0.0   0.082   0.000   69.2    50   49.8   67.7   9.27  .0753    0.000   203    7    100.0   10 
 1/20/22  6:00a   52.6   53.2   52.6    92   50.3   8.0     S   1.33  11.0   SSE   49.6   52.8   49.8   47.2  30.381  0.00  0.00     0     0.00      0     0.0  0.00   0.0   0.086   0.000   69.4    51   50.5   68.0   9.46  .0752    0.001   205    7    100.0   10 
 1/20/22  6:10a   53.2   53.2   52.6    91   50.6   7.0     S   1.17  12.0   SSE   51.0   53.3   51.1   48.4  30.377  0.00  0.00     0     0.00      0     0.0  0.00   0.0   0.082   0.000   69.6    51   50.7   68.1   9.46  .0752    0.000   202    7    100.0   10 
 1/20/22  6:20a   53.4   53.5   53.2    90   50.5   6.0     S   1.00  12.0   SSE   51.7   53.5   51.8   49.1  30.370  0.00  0.00     0     0.00      0     0.0  0.00   0.0   0.081   0.000   69.8    51   50.9   68.2   9.45  .0751    0.000   203    7    100.0   10 
 1/20/22  6:30a   53.3   53.4   53.3    90   50.4   7.0     S   1.17  13.0     S   51.2   53.4   51.3   48.6  30.368  0.00  0.00     0     0.00      0     0.0  0.00   0.0   0.081   0.000   70.1    51   51.1   68.5   9.45  .0751    0.000   203    7    100.0   10 
 1/20/22  6:40a   53.4   53.5   53.3    90   50.5   6.0     S   1.00  11.0     S   51.7   53.5   51.8   49.1  30.372  0.00  0.00     0     0.00      0     0.0  0.00   0.0   0.081   0.000   70.3    51   51.3   68.8   9.44  .0751    0.000   203    7    100.0   10 
 1/20/22  6:50a   53.2   53.5   53.2    91   50.6   7.0     S   1.17  12.0   SSE   51.0   53.3   51.1   48.4  30.369  0.00  0.00     0     0.00      0     0.0  0.00   0.0   0.082   0.000   70.5    51   51.5   69.0   9.44  .0750    0.000   201    7    100.0   10 
 1/20/22  7:00a   53.5   53.5   53.2    90   50.6   7.0     S   1.17  15.0     S   51.4   53.6   51.5   48.8  30.373  0.00  0.00     0     0.00      0     0.0  0.00   0.0   0.080   0.000   70.7    51   51.7   69.3   9.44  .0750    0.001   203    7    100.0   10 
 1/20/22  7:10a   53.3   53.5   53.2    91   50.7   7.0     S   1.17  13.0     S   51.2   53.4   51.3   48.6  30.374  0.00  0.00     0     0.00      0     0.0  0.00   0.0   0.081   0.000   70.9    51   51.9   69.6   9.43  .0750    0.000   204    7    100.0   10 
 1/20/22  7:20a   53.7   53.7   53.2    89   50.5   7.0     S   1.17  13.0     S   51.6   53.8   51.7   49.0  30.370  0.00  0.00     0     0.00      0     0.0  0.00   0.0   0.078   0.000   71.1    51   52.0   69.8   9.43  .0749    0.000   203    7    100.0   10 
 1/20/22  7:30a   53.7   53.8   53.6    88   50.2   8.0     S   1.33  17.0   SSE   50.9   53.7   50.9   48.3  30.364  0.00  0.00     0     0.00      0     0.0  0.00   0.0   0.078   0.000   71.2    51   52.1   70.0   9.43  .0749    0.000   203    7    100.0   10 
 1/20/22  7:40a   53.7   53.9   53.7    89   50.5   7.0     S   1.17  17.0   SSE   51.6   53.8   51.7   49.0  30.364  0.00  0.00     0     0.00      0     0.0  0.00   0.0   0.078   0.000   71.3    51   52.2   70.1   9.42  .0749    0.000   204    7    100.0   10 
 1/20/22  7:50a   53.7   53.8   53.5    88   50.2   7.0     S   1.17  12.0     S   51.6   53.7   51.6   48.9  30.375  0.00  0.00     0     0.00      0     0.0  0.00   0.0   0.078   0.000   71.4    51   52.3   70.3   9.42  .0749    0.000   204    7    100.0   10 
 1/20/22  8:00a   53.0   53.7   53.0    91   50.4   8.0     S   1.33  14.0   SSE   50.1   53.1   50.2   47.6  30.384  0.01  0.00     0     0.00      0     0.0  0.00   0.0   0.083   0.000   71.6    51   52.5   70.6   9.42  .0749    0.001   205    7    100.0   10 
 1/20/22  8:10a   52.3   53.0   52.3    93   50.3   8.0     S   1.33  12.0     S   49.3   52.5   49.5   46.9  30.395  0.00  0.00     2     0.03      7     0.0  0.00   0.0   0.088   0.000   71.7    51   52.6   70.7   9.42  .0749    0.000   202    7    100.0   10 
 1/20/22  8:20a   52.0   52.3   52.0    94   50.3  10.0     S   1.67  17.0   SSE   47.6   52.3   47.9   45.7  30.398  0.00  0.00     9     0.13     12     0.0  0.00   0.0   0.090   0.000   71.8    51   52.7   70.9   9.41  .0749    0.000   203    7    100.0   10 
 1/20/22  8:30a   51.5   51.9   51.5    96   50.4  11.0     S   1.83  17.0   SSE   46.5   51.9   46.9   44.8  30.400  0.00  0.00    11     0.16     14     0.0  0.00   0.0   0.094   0.000   71.9    51   52.8   71.0   9.41  .0749    0.000   203    7    100.0   10 
 1/20/22  8:40a   51.6   51.6   51.5    96   50.5  10.0     S   1.67  16.0     S   47.2   52.0   47.6   45.6  30.405  0.00  0.00    19     0.27     30     0.0  0.00   0.0   0.093   0.000   72.0    51   52.9   71.2   9.41  .0748    0.000   203    7    100.0   10 
 1/20/22  8:50a   51.5   51.6   51.5    96   50.4   9.0     S   1.50  14.0     S   47.7   51.9   48.1   46.2  30.412  0.00  0.00    26     0.37     33     0.0  0.00   0.0   0.094   0.000   72.1    50   52.4   71.2   9.25  .0749    0.000   202    7    100.0   10 
 1/20/22  9:00a   51.6   51.6   51.5    97   50.8   9.0     S   1.50  15.0     S   47.8   52.0   48.2   46.1  30.414  0.01  0.00    19     0.27     23     0.0  0.00   0.0   0.093   0.000   72.1    50   52.4   71.2   9.25  .0749    0.001   202    7    100.0   10 
 1/20/22  9:10a   51.6   51.7   51.6    97   50.8  10.0     S   1.67  17.0   SSE   47.2   52.0   47.6   47.6  30.418  0.00  0.00    42     0.60     58     0.0  0.00   0.0   0.093   0.000   72.1    50   52.4   71.2   9.25  .0749    0.000   203    7    100.0   10 
 1/20/22  9:20a   51.6   51.6   51.5    97   50.8  10.0     S   1.67  15.0     S   47.2   52.0   47.6   47.7  30.416  0.00  0.00    43     0.62     51     0.0  0.00   0.0   0.093   0.000   72.0    50   52.3   71.1   9.25  .0749    0.000   203    7    100.0   10 
 1/20/22  9:30a   51.5   51.6   51.5    97   50.7  11.0     S   1.83  17.0   SSE   46.5   51.9   46.9   47.7  30.425  0.00  0.00    63     0.90     81     0.0  0.00   0.0   0.094   0.000   72.0    50   52.3   71.1   9.25  .0749    0.000   204    7    100.0   10 
 1/20/22  9:40a   51.3   51.5   51.3    97   50.5  10.0     S   1.67  17.0   SSE   46.8   51.8   47.3   47.5  30.432  0.00  0.00    47     0.67     53     0.0  0.00   0.0   0.095   0.000   72.0    50   52.3   71.1   9.25  .0749    0.000   204    7    100.0   10 
 1/20/22  9:50a   51.2   51.4   51.2    97   50.4   9.0     S   1.50  15.0     S   47.3   51.7   47.8   48.0  30.434  0.00  0.00    47     0.67     54     0.0  0.00   0.0   0.096   0.000   72.0    50   52.3   71.1   9.25  .0749    0.000   204    7    100.0   10 
 1/20/22 10:00a   51.3   51.4   51.2    97   50.5   9.0     S   1.50  14.0     S   47.4   51.8   47.9   48.5  30.434  0.00  0.00    60     0.86     76     0.0  0.00   0.0   0.095   0.000   72.0    50   52.3   71.1   9.25  .0749    0.001   202    7    100.0   10 
 1/20/22 10:10a   51.2   51.3   51.1    98   50.7   9.0     S   1.50  14.0   SSE   47.3   51.7   47.8   48.1  30.439  0.00  0.00    52     0.75     56     0.0  0.00   0.0   0.096   0.000   71.9    50   52.2   70.9   9.25  .0750    0.000   203    7    100.0   10 
 1/20/22 10:20a   50.8   51.2   50.8    97   50.0   9.0     S   1.50  14.0   SSE   46.9   51.3   47.4   48.4  30.446  0.00  0.00    73     1.05    111     0.0  0.00   0.0   0.099   0.000   71.9    50   52.2   70.9   9.25  .0750    0.000   204    7    100.0   10 
 1/20/22 10:30a   50.5   50.8   50.5    98   50.0   6.0    SW   1.00  10.0    SW   48.3   51.1   48.9   50.1  30.451  0.01  0.00    75     1.08    100     0.0  0.00   0.0   0.101   0.000   71.9    50   52.2   70.9   9.25  .0750    0.000   203    7    100.0   10 
 1/20/22 10:40a   50.6   50.6   50.5    98   50.1   5.0    SW   0.83   9.0     S   48.9   51.2   49.5   51.0  30.454  0.00  0.00    83     1.19     90     0.0  0.00   0.0   0.100   0.000   71.7    50   52.1   70.6   9.25  .0750    0.000   204    7    100.0   10 
 1/20/22 10:50a   50.5   50.6   50.5    98   50.0   5.0    SW   0.83   8.0   WSW   48.8   51.1   49.4   50.9  30.455  0.00  0.00    85     1.22     97     0.1  0.01   0.5   0.101   0.000   71.6    50   52.0   70.5   9.25  .0751    0.000   202    7    100.0   10 
 1/20/22 11:00a   50.3   50.5   50.3    98   49.8   5.0    SW   0.83   9.0   WSW   48.6   50.9   49.2   52.2  30.451  0.00  0.00   126     1.81    148     0.6  0.04   0.7   0.102   0.000   71.7    50   52.1   70.6   9.25  .0750    0.002   203    7    100.0   10 
 1/20/22 11:10a   50.5   50.5   50.3    98   50.0   5.0    SW   0.83   8.0   SSE   48.8   51.1   49.4   53.9  30.449  0.00  0.00   172     2.47    192     0.7  0.05   0.7   0.101   0.000   71.8    50   52.2   70.8   9.25  .0750    0.000   203    7    100.0   10 
 1/20/22 11:20a   50.3   50.4   50.3    98   49.8   5.0   SSW   0.83   9.0   SSE   48.6   50.9   49.2   52.5  30.448  0.00  0.00   138     1.98    163     0.6  0.04   0.7   0.102   0.000   72.0    50   52.3   71.1   9.25  .0750    0.000   204    7    100.0   10 
 1/20/22 11:30a   50.1   50.4   50.1    98   49.6   7.0    SW   1.17  10.0   WSW   47.3   50.7   47.9   49.6  30.448  0.00  0.00    95     1.36    100     0.4  0.03   0.5   0.103   0.000   72.0    50   52.3   71.1   9.25  .0750    0.000   202    7    100.0   10 
 1/20/22 11:40a   49.7   50.1   49.7    98   49.2   8.0   WSW   1.33  10.0   WSW   46.1   50.3   46.7   48.9  30.448  0.00  0.00   111     1.59    134     0.5  0.04   0.6   0.106   0.000   72.0    50   52.3   71.1   9.25  .0750    0.000   201    7    100.0   10 
 1/20/22 11:50a   49.8   49.8   49.6    98   49.3   7.0   WSW   1.17  10.0   WSW   47.0   50.4   47.6   50.9  30.454  0.00  0.00   140     2.01    155     0.6  0.04   0.7   0.106   0.000   72.0    51   52.9   71.2   9.41  .0750    0.000   204    7    100.0   10 
 1/20/22 12:00p   49.7   49.8   49.5    98   49.2   7.0     W   1.17   9.0     W   46.8   50.3   47.4   49.6  30.452  0.00  0.00   109     1.56    114     0.4  0.03   0.5   0.106   0.000   71.9    51   52.8   71.0   9.41  .0750    0.002   202    7    100.0   10 
 1/20/22 12:10p   49.3   49.7   49.2    98   48.8   8.0     W   1.33  10.0     W   45.7   49.9   46.3   48.5  30.454  0.00  0.00   112     1.61    120     0.5  0.04   0.5   0.109   0.000   71.9    51   52.8   71.0   9.41  .0750    0.000   203    7    100.0   10 
 1/20/22 12:20p   49.2   49.4   49.2    98   48.7   7.0     W   1.17  10.0     W   46.2   49.8   46.8   49.9  30.449  0.00  0.00   134     1.92    156     0.6  0.04   0.6   0.110   0.000   71.9    51   52.8   71.0   9.41  .0750    0.000   205    7    100.0   10 
 1/20/22 12:30p   49.4   49.5   49.1    98   48.9   5.0     W   0.83   8.0     W   47.5   50.0   48.1   50.8  30.449  0.00  0.00   124     1.78    141     0.4  0.03   0.6   0.108   0.000   71.9    51   52.8   71.0   9.41  .0750    0.000   203    7    100.0   10 
 1/20/22 12:40p   49.2   49.5   49.2    98   48.7   6.0     W   1.00  10.0     W   46.7   49.8   47.3   50.9  30.447  0.00  0.00   150     2.15    178     0.6  0.04   0.7   0.110   0.000   71.9    51   52.8   71.0   9.41  .0750    0.000   204    7    100.0   10 
 1/20/22 12:50p   49.2   49.3   49.1    98   48.7   7.0     W   1.17   9.0   WSW   46.2   49.8   46.8   51.1  30.456  0.00  0.00   173     2.48    188     0.7  0.05   0.7   0.110   0.000   71.8    51   52.7   70.9   9.41  .0750    0.000   202    7    100.0   10 
 1/20/22  1:00p   49.0   49.3   49.0    97   48.2   7.0     W   1.17  11.0     W   46.0   49.5   46.5   50.3  30.458  0.00  0.00   155     2.22    179     0.6  0.04   0.7   0.111   0.000   71.8    51   52.7   70.9   9.41  .0750    0.003   201    7    100.0   10 
 1/20/22  1:10p   48.8   49.1   48.8    97   48.0   8.0     W   1.33  10.0     W   45.1   49.3   45.6   49.7  30.457  0.00  0.00   167     2.39    179     0.7  0.05   0.7   0.113   0.000   71.9    51   52.8   71.0   9.41  .0750    0.000   202    7    100.0   10 
 1/20/22  1:20p   48.8   48.9   48.7    98   48.3   7.0     W   1.17   9.0     W   45.8   49.4   46.4   50.8  30.456  0.00  0.00   172     2.47    200     0.7  0.05   0.8   0.113   0.000   71.9    50   52.2   70.9   9.25  .0750    0.000   203    7    100.0   10 
 1/20/22  1:30p   49.1   49.2   48.8    98   48.6   5.0     W   0.83   9.0   WNW   47.1   49.7   47.7   51.8  30.459  0.00  0.00   157     2.25    190     0.6  0.04   0.7   0.110   0.000   72.0    51   52.9   71.2   9.41  .0750    0.000   204    7    100.0   10 
 1/20/22  1:40p   49.0   49.2   49.0    97   48.2   4.0   NNW   0.67   9.0    NW   47.7   49.5   48.2   51.4  30.460  0.00  0.00   130     1.86    160     0.5  0.04   0.6   0.111   0.000   72.0    52   53.4   71.3   9.61  .0750    0.000   204    7    100.0   10 
 1/20/22  1:50p   48.4   49.0   48.3    97   47.6   5.0   NNW   0.83   9.0    NW   46.3   48.9   46.8   50.0  30.462  0.00  0.00   131     1.88    153     0.5  0.04   0.5   0.115   0.000   72.0    52   53.4   71.3   9.61  .0750    0.000   202    7    100.0   10 
 1/20/22  2:00p   48.5   48.6   48.4    97   47.7   4.0   WNW   0.67  10.0     W   47.2   49.0   47.7   51.8  30.462  0.00  0.00   155     2.22    163     0.5  0.04   0.6   0.115   0.000   72.0    53   53.9   71.3   9.77  .0749    0.003   203    7    100.0   10 
 1/20/22  2:10p   48.5   48.6   48.4    97   47.7   4.0   WNW   0.67   9.0   WNW   47.2   49.0   47.7   50.4  30.461  0.00  0.00   114     1.63    141     0.2  0.01   0.5   0.115   0.000   72.0    53   53.9   71.3   9.77  .0749    0.000   204    7    100.0   10 
 1/20/22  2:20p   48.3   48.5   48.3    97   47.5   4.0   NNW   0.67   8.0   NNW   46.9   48.8   47.4   51.6  30.464  0.00  0.00   155     2.22    172     0.5  0.04   0.5   0.116   0.000   72.0    52   53.4   71.3   9.61  .0750    0.000   205    7    100.0   10 
 1/20/22  2:30p   48.3   48.3   48.2    97   47.5   5.0   NNW   0.83  11.0     N   46.2   48.8   46.7   50.6  30.469  0.00  0.00   147     2.11    163     0.3  0.02   0.5   0.116   0.000   72.1    52   53.5   71.4   9.61  .0750    0.000   203    7    100.0   10 
 1/20/22  2:40p   48.1   48.4   48.1    97   47.3   6.0   NNW   1.00  10.0   NNW   45.4   48.6   45.9   48.6  30.477  0.00  0.00   110     1.58    125     0.0  0.00   0.0   0.117   0.000   72.2    52   53.6   71.5   9.61  .0750    0.000   202    7    100.0   10 
 1/20/22  2:50p   47.6   48.1   47.6    97   46.8   9.0   NNW   1.50  15.0   NNW   43.0   48.0   43.4   45.8  30.480  0.00  0.00   111     1.59    134     0.0  0.00   0.0   0.121   0.000   72.2    52   53.6   71.5   9.61  .0750    0.000   202    7    100.0   10 
 1/20/22  3:00p   47.7   47.9   47.7    97   46.9   6.0   NNE   1.00  12.0   NNW   44.9   48.2   45.4   47.3  30.483  0.00  0.00    93     1.33    125     0.0  0.00   0.0   0.120   0.000   72.1    52   53.5   71.4   9.61  .0750    0.002   203    7    100.0   10 
 1/20/22  3:10p   47.5   47.7   47.5    96   46.4   5.0   NNW   0.83   9.0     N   45.3   47.9   45.7   47.7  30.483  0.00  0.00    99     1.42    107     0.0  0.00   0.0   0.122   0.000   72.1    52   53.5   71.4   9.61  .0750    0.000   202    7    100.0   10 
 1/20/22  3:20p   47.8   47.8   47.5    96   46.7   7.0     N   1.17  11.0    NE   44.6   48.2   45.0   44.2  30.488  0.00  0.00   105     1.51    114     0.0  0.00   0.0   0.119   0.000   72.1    51   53.0   71.3   9.41  .0750    0.000   202    7    100.0   10 
 1/20/22  3:30p   47.5   47.8   47.5    96   46.4   7.0   NNE   1.17  11.0     N   44.2   47.9   44.6   43.7  30.488  0.00  0.00    99     1.42    105     0.0  0.00   0.0   0.122   0.000   72.1    51   53.0   71.3   9.41  .0750    0.000   204    7    100.0   10 
 1/20/22  3:40p   47.5   47.6   47.5    96   46.4   7.0   NNE   1.17  13.0   NNE   44.2   47.9   44.6   42.9  30.488  0.00  0.00    65     0.93     84     0.0  0.00   0.0   0.122   0.000   72.0    51   52.9   71.2   9.41  .0751    0.000   204    7    100.0   10 
 1/20/22  3:50p   47.5   47.6   47.4    97   46.7   6.0     N   1.00  14.0   NNE   44.7   47.9   45.1   43.6  30.487  0.00  0.00    71     1.02     79     0.0  0.00   0.0   0.122   0.000   71.9    51   52.8   71.0   9.41  .0751    0.000   202    7    100.0   10 
 1/20/22  4:00p   47.2   47.5   47.2    97   46.4   8.0   NNE   1.33  13.0     N   43.1   47.6   43.5   41.6  30.494  0.00  0.00    52     0.75     58     0.0  0.00   0.0   0.124   0.000   71.9    51   52.8   71.0   9.41  .0751    0.002   203    7    100.0   10 
 1/20/22  4:10p   47.3   47.3   47.1    96   46.2   8.0   NNE   1.33  13.0    NE   43.3   47.7   43.7   42.1  30.497  0.00  0.00    64     0.92     72     0.0  0.00   0.0   0.123   0.000   71.9    51   52.8   71.0   9.41  .0751    0.000   204    7    100.0   10 
 1/20/22  4:20p   47.8   47.8   47.3    96   46.7   6.0    NE   1.00  11.0     N   45.1   48.2   45.5   44.2  30.496  0.00  0.00    84     1.20    104     0.0  0.00   0.0   0.119   0.000   71.8    51   52.7   70.9   9.41  .0751    0.000   201    7    100.0   10 
 1/20/22  4:30p   47.5   47.8   47.4    95   46.1   5.0   NNW   0.83  11.0   NNE   45.3   47.8   45.6   44.0  30.498  0.00  0.00    67     0.96    100     0.0  0.00   0.0   0.122   0.000   71.8    51   52.7   70.9   9.41  .0751    0.000   202    7    100.0   10 
 1/20/22  4:40p   47.4   47.6   47.3    95   46.0   5.0   NNW   0.83  10.0   NNW   45.2   47.7   45.5   43.3  30.498  0.00  0.00    42     0.60     51     0.0  0.00   0.0   0.122   0.000   71.8    51   52.7   70.9   9.41  .0751    0.000   201    7    100.0   10 
 1/20/22  4:50p   46.9   47.4   46.9    96   45.8   7.0   NNW   1.17  12.0   NNE   43.5   47.2   43.8   41.0  30.501  0.00  0.00    15     0.22     28     0.0  0.00   0.0   0.126   0.000   72.0    51   52.9   71.2   9.41  .0751    0.000   203    7    100.0   10 
 1/20/22  5:00p   46.6   46.8   46.5    97   45.8   9.0   NNW   1.50  12.0   NNW   41.9   47.0   42.3   39.6  30.499  0.00  0.00     5     0.07      9     0.0  0.00   0.0   0.128   0.000   72.0    51   52.9   71.2   9.41  .0751    0.001   203    7    100.0   10 
 1/20/22  5:10p   46.1   46.6   46.1    96   45.0   7.0   NNW   1.17  10.0   NNW   42.5   46.4   42.8   39.7  30.500  0.00  0.00     0     0.00      0     0.0  0.00   0.0   0.131   0.000   72.0    51   52.9   71.2   9.41  .0751    0.000   200    7    100.0   10 
 1/20/22  5:20p   46.1   46.2   46.0    96   45.0   4.0   NNW   0.67   8.0   NNE   44.3   46.4   44.6   41.5  30.502  0.00  0.00     0     0.00      0     0.0  0.00   0.0   0.131   0.000   72.0    51   52.9   71.2   9.41  .0751    0.000   203    7    100.0   10 
 1/20/22  5:30p   46.3   46.3   46.0    96   45.2   5.0    NE   0.83  10.0     N   43.9   46.6   44.2   41.1  30.502  0.00  0.00     0     0.00      0     0.0  0.00   0.0   0.130   0.000   72.1    52   53.5   71.4   9.61  .0750    0.000   204    7    100.0   10 
 1/20/22  5:40p   46.3   46.5   46.3    96   45.2   7.0   NNE   1.17  11.0     N   42.8   46.6   43.1   40.0  30.503  0.00  0.00     0     0.00      0     0.0  0.00   0.0   0.130   0.000   72.2    52   53.6   71.5   9.61  .0750    0.000   203    7    100.0   10 
 1/20/22  5:50p   46.2   46.3   46.1    96   45.1   7.0   NNE   1.17  13.0   NNE   42.6   46.5   42.9   39.8  30.506  0.00  0.00     0     0.00      0     0.0  0.00   0.0   0.131   0.000   72.3    52   53.7   71.7   9.60  .0750    0.000   202    7    100.0   10 
 1/20/22  6:00p   45.8   46.2   45.7    95   44.4   6.0   NNE   1.00  11.0    NE   42.7   46.1   43.0   39.8  30.509  0.00  0.00     0     0.00      0     0.0  0.00   0.0   0.133   0.000   72.3    51   53.2   71.6   9.40  .0751    0.000   203    7    100.0   10 
 1/20/22  6:10p   46.1   46.1   45.7    96   45.0   4.0   NNE   0.67   8.0    NW   44.3   46.4   44.6   41.5  30.511  0.00  0.00     0     0.00      0     0.0  0.00   0.0   0.131   0.000   72.3    51   53.2   71.6   9.40  .0751    0.000   203    7    100.0   10 
 1/20/22  6:20p   46.0   46.3   46.0    96   44.9  10.0   NNW   1.67  15.0   NNW   40.6   46.3   40.9   38.1  30.521  0.00  0.00     0     0.00      0     0.0  0.00   0.0   0.132   0.000   72.4    51   53.2   71.7   9.40  .0751    0.000   203    7    100.0   10 
 1/20/22  6:30p   45.6   46.0   45.5    96   44.5   5.0   NNE   0.83  12.0   NNE   43.0   45.9   43.3   40.1  30.523  0.00  0.00     0     0.00      0     0.0  0.00   0.0   0.135   0.000   72.4    51   53.2   71.7   9.40  .0751    0.000   203    7    100.0   10 
 1/20/22  6:40p   45.5   45.5   45.4    97   44.7   3.0    NE   0.50   6.0    NE   44.6   45.8   44.9   41.7  30.525  0.00  0.00     0     0.00      0     0.0  0.00   0.0   0.135   0.000   72.4    51   53.2   71.7   9.40  .0751    0.000   202    7    100.0   10 
 1/20/22  6:50p   45.3   45.5   45.3    97   44.5   4.0    NE   0.67   9.0    NE   43.4   45.6   43.7   40.5  30.528  0.00  0.00     0     0.00      0     0.0  0.00   0.0   0.137   0.000   72.4    51   53.2   71.7   9.40  .0751    0.000   203    7    100.0   10 
 1/20/22  7:00p   45.3   45.3   45.2    97   44.5   2.0   ENE   0.33   6.0     E   45.3   45.6   45.6   42.4  30.532  0.00  0.00     0     0.00      0     0.0  0.00   0.0   0.137   0.000   72.3    51   53.2   71.6   9.40  .0751    0.000   204    7    100.0   10 
 1/20/22  7:10p   45.2   45.3   45.2    97   44.4   1.0    NE   0.17   4.0    NE   45.2   45.5   45.5   42.3  30.538  0.00  0.00     0     0.00      0     0.0  0.00   0.0   0.137   0.000   72.3    51   53.2   71.6   9.40  .0751    0.000   201    7    100.0   10 
 1/20/22  7:20p   45.1   45.3   45.1    97   44.3   2.0   ENE   0.33   6.0    NE   45.1   45.4   45.4   42.2  30.539  0.00  0.00     0     0.00      0     0.0  0.00   0.0   0.138   0.000   72.1    51   53.0   71.3   9.41  .0752    0.000   204    7    100.0   10 
 1/20/22  7:30p   44.9   45.1   44.9    97   44.1   3.0   ENE   0.50   6.0    NE   43.9   45.2   44.2   41.0  30.541  0.00  0.00     0     0.00      0     0.0  0.00   0.0   0.140   0.000   72.1    51   53.0   71.3   9.41  .0752    0.000   204    7    100.0   10 
 1/20/22  7:40p   45.1   45.1   44.9    97   44.3   3.0   NNE   0.50   9.0    NE   44.1   45.4   44.4   41.2  30.541  0.00  0.00     0     0.00      0     0.0  0.00   0.0   0.138   0.000   71.9    51   52.8   71.0   9.41  .0752    0.000   203    7    100.0   10 
 1/20/22  7:50p   44.9   45.1   44.9    97   44.1   3.0   ENE   0.50   6.0   ENE   43.9   45.2   44.2   41.0  30.540  0.00  0.00     0     0.00      0     0.0  0.00   0.0   0.140   0.000   71.8    51   52.7   70.9   9.41  .0752    0.000   201    7    100.0   10 
 1/20/22  8:00p   44.6   44.9   44.6    96   43.5   2.0   ENE   0.33   7.0     E   44.6   44.8   44.8   41.6  30.536  0.00  0.00     0     0.00      0     0.0  0.00   0.0   0.142   0.000   71.7    51   52.6   70.7   9.42  .0752    0.000   205    7    100.0   10 
 1/20/22  8:10p   44.4   44.7   44.4    96   43.3   1.0   ENE   0.17   4.0   ENE   44.4   44.6   44.6   41.4  30.527  0.00  0.00     0     0.00      0     0.0  0.00   0.0   0.143   0.000   71.6    51   52.5   70.6   9.42  .0752    0.000   202    7    100.0   10 
 1/20/22  8:20p   44.0   44.4   44.0    96   42.9   0.0     E   0.00   2.0     E   44.0   44.2   44.2   40.9  30.520  0.00  0.00     0     0.00      0     0.0  0.00   0.0   0.146   0.000   71.5    51   52.4   70.4   9.42  .0752    0.000   203    7    100.0   10 
 1/20/22  8:30p   44.1   44.2   44.0    96   43.0   0.0    SE   0.00   1.0    SE   44.1   44.3   44.3   41.1  30.522  0.00  0.00     0     0.00      0     0.0  0.00   0.0   0.145   0.000   71.4    51   52.3   70.3   9.42  .0752    0.000   203    7    100.0   10 
 1/20/22  8:40p   43.7   44.1   43.6    96   42.6   1.0    NE   0.17   3.0    NE   43.7   43.9   43.9   40.6  30.529  0.00  0.00     0     0.00      0     0.0  0.00   0.0   0.148   0.000   71.4    51   52.3   70.3   9.42  .0753    0.000   205    7    100.0   10 
 1/20/22  8:50p   43.6   43.7   43.6    96   42.5   1.0     E   0.17   2.0    NE   43.6   43.8   43.8   40.5  30.525  0.00  0.00     0     0.00      0     0.0  0.00   0.0   0.149   0.000   71.3    51   52.2   70.1   9.42  .0753    0.000   204    7    100.0   10 
 1/20/22  9:00p   43.9   43.9   43.6    97   43.1   1.0   ENE   0.17   4.0   ENE   43.9   44.2   44.2   41.0  30.525  0.00  0.00     0     0.00      0     0.0  0.00   0.0   0.147   0.000   71.1    51   52.0   69.8   9.43  .0753    0.000   203    7    100.0   10 
 1/20/22  9:10p   44.2   44.2   43.9    97   43.4   1.0   ENE   0.17   3.0     E   44.2   44.5   44.5   41.3  30.531  0.00  0.00     0     0.00      0     0.0  0.00   0.0   0.144   0.000   71.0    51   52.0   69.7   9.43  .0753    0.000   201    7    100.0   10 
 1/20/22  9:20p   44.3   44.3   44.2    96   43.2   1.0   ENE   0.17   3.0   ENE   44.3   44.5   44.5   41.3  30.526  0.00  0.00     0     0.00      0     0.0  0.00   0.0   0.144   0.000   70.9    51   51.9   69.6   9.43  .0753    0.000   202    7    100.0   10 
 1/20/22  9:30p   44.2   44.3   44.2    96   43.1   1.0   ENE   0.17   4.0   ENE   44.2   44.4   44.4   41.2  30.524  0.00  0.00     0     0.00      0     0.0  0.00   0.0   0.144   0.000   70.7    51   51.7   69.3   9.44  .0754    0.000   202    7    100.0   10 
 1/20/22  9:40p   44.2   44.2   44.2    96   43.1   0.0   ENE   0.00   2.0   ENE   44.2   44.4   44.4   41.2  30.525  0.00  0.00     0     0.00      0     0.0  0.00   0.0   0.144   0.000   70.6    51   51.6   69.2   9.44  .0754    0.000   204    7    100.0   10 
 1/20/22  9:50p   44.2   44.2   44.1    96   43.1   0.0   ENE   0.00   3.0   ENE   44.2   44.4   44.4   41.2  30.531  0.00  0.00     0     0.00      0     0.0  0.00   0.0   0.144   0.000   70.5    51   51.5   69.0   9.44  .0754    0.000   203    7    100.0   10 
 1/20/22 10:00p   44.2   44.2   44.1    96   43.1   0.0   ENE   0.00   1.0   ENE   44.2   44.4   44.4   41.2  30.534  0.00  0.00     0     0.00      0     0.0  0.00   0.0   0.144   0.000   70.4    51   51.4   68.9   9.44  .0754    0.000   205    7    100.0   10 
 1/20/22 10:10p   44.2   44.3   44.2    97   43.4   0.0   ENE   0.00   1.0   ENE   44.2   44.5   44.5   41.3  30.534  0.00  0.00     0     0.00      0     0.0  0.00   0.0   0.144   0.000   70.3    51   51.3   68.8   9.44  .0755    0.000   201    7    100.0   10 
 1/20/22 10:20p   44.5   44.5   44.2    97   43.7   1.0    NE   0.17   4.0    NE   44.5   44.8   44.8   41.6  30.537  0.00  0.00     0     0.00      0     0.0  0.00   0.0   0.142   0.000   70.2    51   51.2   68.6   9.45  .0755    0.000   202    7    100.0   10 
 1/20/22 10:30p   44.5   44.5   44.4    97   43.7   0.0   ENE   0.00   2.0   ENE   44.5   44.8   44.8   41.6  30.544  0.00  0.00     0     0.00      0     0.0  0.00   0.0   0.142   0.000   70.1    51   51.1   68.5   9.45  .0755    0.000   203    7    100.0   10 
 1/20/22 10:40p   44.4   44.5   44.4    97   43.6   0.0   ENE   0.00   4.0    NE   44.4   44.7   44.7   41.5  30.549  0.00  0.00     0     0.00      0     0.0  0.00   0.0   0.143   0.000   70.0    51   51.0   68.4   9.45  .0756    0.000   205    7    100.0   10 
 1/20/22 10:50p   44.4   44.5   44.4    96   43.3   1.0    NE   0.17   4.0     E   44.4   44.6   44.6   41.4  30.543  0.00  0.00     0     0.00      0     0.0  0.00   0.0   0.143   0.000   69.9    51   50.9   68.3   9.45  .0756    0.000   203    7    100.0   10 
 1/20/22 11:00p   44.2   44.4   44.1    96   43.1   1.0    NE   0.17   3.0    NE   44.2   44.4   44.4   41.2  30.546  0.00  0.00     0     0.00      0     0.0  0.00   0.0   0.144   0.000   69.9    51   50.9   68.3   9.45  .0756    0.000   201    7    100.0   10 
 1/20/22 11:10p   43.8   44.2   43.8    96   42.7   1.0   ENE   0.17   3.0   ENE   43.8   44.0   44.0   40.7  30.555  0.00  0.00     0     0.00      0     0.0  0.00   0.0   0.147   0.000   69.8    51   50.9   68.2   9.45  .0756    0.000   204    7    100.0   10 
 1/20/22 11:20p   44.2   44.2   43.8    97   43.4   1.0   ENE   0.17   5.0    NE   44.2   44.5   44.5   41.3  30.560  0.00  0.00     0     0.00      0     0.0  0.00   0.0   0.144   0.000   69.7    51   50.8   68.2   9.46  .0756    0.000   202    7    100.0   10 
 1/20/22 11:30p   44.4   44.4   44.1    97   43.6   1.0     E   0.17   3.0   ENE   44.4   44.7   44.7   41.5  30.562  0.00  0.00     0     0.00      0     0.0  0.00   0.0   0.143   0.000   69.6    51   50.7   68.1   9.46  .0757    0.000   201    7    100.0   10 
 1/20/22 11:40p   44.4   44.5   44.3    96   43.3   0.0   ENE   0.00   2.0     E   44.4   44.6   44.6   41.4  30.562  0.00  0.00     0     0.00      0     0.0  0.00   0.0   0.143   0.000   69.6    51   50.7   68.1   9.46  .0757    0.000   203    7    100.0   10 
 1/20/22 11:50p   44.7   44.7   44.4    97   43.9   0.0   ENE   0.00   2.0   ESE   44.7   45.0   45.0   41.8  30.562  0.00  0.00     0     0.00      0     0.0  0.00   0.0   0.141   0.000   69.5    51   50.6   68.0   9.46  .0757    0.000   204    7    100.0   10 
 1/21/22 12:00a   44.6   44.7   44.6    97   43.8   0.0   ENE   0.00   2.0   ENE   44.6   44.9   44.9   41.7  30.565  0.00  0.00     0     0.00      0     0.0  0.00   0.0   0.142   0.000   69.4    51   50.5   68.0   9.46  .0757    0.000   202    7    100.0   10 
 1/21/22 12:10a   44.6   44.7   44.6    97   43.8   0.0   ENE   0.00   2.0   ENE   44.6   44.9   44.9   41.7  30.566  0.00  0.00     0     0.00      0     0.0  0.00   0.0   0.142   0.000   69.4    51   50.5   68.0   9.46  .0757    0.000   200    7    100.0   10 
 1/21/22 12:20a   44.5   44.7   44.5    97   43.7   0.0     E   0.00   3.0     E   44.5   44.8   44.8   41.6  30.568  0.00  0.00     0     0.00      0     0.0  0.00   0.0   0.142   0.000   69.3    51   50.4   67.9   9.46  .0757    0.000   202    7    100.0   10 
 1/21/22 12:30a   44.2   44.5   44.2    96   43.1   1.0     E   0.17   3.0   ENE   44.2   44.4   44.4   41.2  30.567  0.00  0.00     0     0.00      0     0.0  0.00   0.0   0.144   0.000   69.3    51   50.4   67.9   9.46  .0757    0.000   204    7    100.0   10 
 1/21/22 12:40a   44.0   44.2   44.0    96   42.9   0.0   ENE   0.00   2.0   ENE   44.0   44.2   44.2   40.9  30.568  0.00  0.00     0     0.00      0     0.0  0.00   0.0   0.146   0.000   69.2    51   50.3   67.8   9.47  .0757    0.000   200    7    100.0   10 
 1/21/22 12:50a   43.9   44.0   43.9    96   42.8   0.0   ENE   0.00   3.0   ENE   43.9   44.1   44.1   40.8  30.569  0.00  0.00     0     0.00      0     0.0  0.00   0.0   0.147   0.000   69.2    51   50.3   67.8   9.47  .0757    0.000   203    7    100.0   10 
 1/21/22  1:00a   43.8   44.0   43.8    96   42.7   1.0   ENE   0.17   4.0   ENE   43.8   44.0   44.0   40.7  30.572  0.00  0.00     0     0.00      0     0.0  0.00   0.0   0.147   0.000   69.1    51   50.2   67.8   9.47  .0758    0.000   202    7    100.0   10 
 1/21/22  1:10a   44.0   44.0   43.8    96   42.9   2.0    NE   0.33   5.0    NE   44.0   44.2   44.2   40.9  30.572  0.00  0.00     0     0.00      0     0.0  0.00   0.0   0.146   0.000   69.0    51   50.1   67.7   9.47  .0758    0.000   200    7    100.0   10 
 1/21/22  1:20a   44.2   44.2   43.9    97   43.4   2.0    NE   0.33   5.0    NE   44.2   44.5   44.5   41.3  30.572  0.00  0.00     0     0.00      0     0.0  0.00   0.0   0.144   0.000   69.0    51   50.1   67.7   9.47  .0758    0.000   203    7    100.0   10 
 1/21/22  1:30a   43.8   44.2   43.8    96   42.7   1.0   ENE   0.17   2.0    NE   43.8   44.0   44.0   40.7  30.569  0.00  0.00     0     0.00      0     0.0  0.00   0.0   0.147   0.000   68.9    51   50.0   67.6   9.47  .0758    0.000   204    7    100.0   10 
 1/21/22  1:40a   43.2   43.8   43.2    96   42.1   0.0   ENE   0.00   2.0   ENE   43.2   43.4   43.4   40.1  30.565  0.00  0.00     0     0.00      0     0.0  0.00   0.0   0.151   0.000   68.9    51   50.0   67.6   9.47  .0758    0.000   202    7    100.0   10 
 1/21/22  1:50a   42.9   43.2   42.9    96   41.8   1.0   ENE   0.17   2.0   ENE   42.9   43.0   43.0   39.7  30.568  0.00  0.00     0     0.00      0     0.0  0.00   0.0   0.153   0.000   68.8    51   49.9   67.5   9.47  .0758    0.000   203    7    100.0   10 
 1/21/22  2:00a   42.8   42.9   42.7    96   41.7   0.0   ENE   0.00   2.0   ENE   42.8   42.9   42.9   39.6  30.561  0.00  0.00     0     0.00      0     0.0  0.00   0.0   0.154   0.000   68.8    51   49.9   67.5   9.47  .0758    0.000   204    7    100.0   10 
 1/21/22  2:10a   42.5   42.8   42.5    96   41.4   0.0   ENE   0.00   2.0   ENE   42.5   42.6   42.6   39.3  30.559  0.00  0.00     0     0.00      0     0.0  0.00   0.0   0.156   0.000   68.7    51   49.8   67.4   9.48  .0758    0.000   203    7    100.0   10 
 1/21/22  2:20a   42.4   42.5   42.4    96   41.3   2.0     E   0.33   4.0     E   42.4   42.5   42.5   39.2  30.561  0.00  0.00     0     0.00      0     0.0  0.00   0.0   0.157   0.000   68.7    51   49.8   67.4   9.48  .0758    0.000   203    7    100.0   10 
 1/21/22  2:30a   42.6   42.6   42.4    96   41.5   2.0     E   0.33   4.0     E   42.6   42.7   42.7   39.4  30.567  0.00  0.00     0     0.00      0     0.0  0.00   0.0   0.156   0.000   68.6    51   49.7   67.3   9.48  .0758    0.000   204    7    100.0   10 
 1/21/22  2:40a   42.3   42.6   42.3    96   41.2   2.0     E   0.33   4.0   ESE   42.3   42.4   42.4   39.1  30.568  0.00  0.00     0     0.00      0     0.0  0.00   0.0   0.158   0.000   68.6    51   49.7   67.3   9.48  .0758    0.000   204    7    100.0   10 
 1/21/22  2:50a   42.0   42.4   42.0    96   40.9   2.0     E   0.33   3.0   ESE   42.0   42.1   42.1   38.7  30.573  0.00  0.00     0     0.00      0     0.0  0.00   0.0   0.160   0.000   68.5    51   49.7   67.2   9.48  .0759    0.000   201    7    100.0   10 
 1/21/22  3:00a   42.0   42.1   42.0    96   40.9   1.0    NE   0.17   3.0   ENE   42.0   42.1   42.1   38.7  30.573  0.00  0.00     0     0.00      0     0.0  0.00   0.0   0.160   0.000   68.4    50   49.0   67.1   9.28  .0759    0.000   205    7    100.0   10 
 1/21/22  3:10a   42.0   42.1   42.0    96   40.9   0.0   ---   0.00   0.0   ---   42.0   42.1   42.1   38.7  30.574  0.00  0.00     0     0.00      0     0.0  0.00   0.0   0.160   0.000   68.4    50   49.0   67.1   9.28  .0759    0.000   203    7    100.0   10 
 1/21/22  3:20a   41.8   42.1   41.8    96   40.7   0.0   ENE   0.00   2.0    NE   41.8   41.9   41.9   38.5  30.582  0.00  0.00     0     0.00      0     0.0  0.00   0.0   0.161   0.000   68.3    50   48.9   67.0   9.28  .0760    0.000   201    7    100.0   10 
 1/21/22  3:30a   41.4   41.9   41.4    96   40.3   1.0   ENE   0.17   2.0     E   41.4   41.5   41.5   38.1  30.584  0.00  0.00     0     0.00      0     0.0  0.00   0.0   0.164   0.000   68.2    50   48.8   66.9   9.29  .0760    0.000   201    7    100.0   10 
 1/21/22  3:40a   41.3   41.4   41.2    96   40.2   0.0   ENE   0.00   1.0   ENE   41.3   41.4   41.4   38.0  30.589  0.00  0.00     0     0.00      0     0.0  0.00   0.0   0.165   0.000   68.2    50   48.8   66.9   9.29  .0760    0.000   204    7    100.0   10 
 1/21/22  3:50a   41.0   41.3   41.0    96   39.9   1.0     E   0.17   2.0     E   41.0   41.1   41.1   37.7  30.595  0.01  0.00     0     0.00      0     0.0  0.00   0.0   0.167   0.000   68.1    50   48.8   66.8   9.29  .0760    0.000   201    7    100.0   10 
 1/21/22  4:00a   41.1   41.1   41.0    96   40.0   2.0     E   0.33   6.0     E   41.0   41.2   41.1   37.7  30.593  0.00  0.00     0     0.00      0     0.0  0.00   0.0   0.166   0.000   68.0    50   48.7   66.7   9.29  .0760    0.000   202    7    100.0   10 
 1/21/22  4:10a   41.1   41.1   41.0    96   40.0   3.0     E   0.50   6.0     E   39.6   41.2   39.7   36.3  30.596  0.00  0.00     0     0.00      0     0.0  0.00   0.0   0.166   0.000   68.0    50   48.7   66.7   9.29  .0760    0.000   203    7    100.0   10 
 1/21/22  4:20a   41.6   41.6   41.1    96   40.5   3.0     E   0.50   6.0     E   40.2   41.7   40.3   36.9  30.593  0.00  0.00     0     0.00      0     0.0  0.00   0.0   0.163   0.000   67.9    50   48.6   66.6   9.29  .0760    0.000   203    7    100.0   10 
 1/21/22  4:30a   41.8   41.8   41.5    96   40.7   3.0     E   0.50   7.0     E   40.4   41.9   40.5   37.1  30.587  0.00  0.00     0     0.00      0     0.0  0.00   0.0   0.161   0.000   67.9    50   48.6   66.6   9.29  .0760    0.000   202    7    100.0   10 
 1/21/22  4:40a   41.9   42.0   41.8    96   40.8   3.0   ENE   0.50   7.0     E   40.5   42.0   40.6   37.2  30.587  0.00  0.00     0     0.00      0     0.0  0.00   0.0   0.160   0.000   67.8    50   48.5   66.5   9.29  .0761    0.000   203    7    100.0   10 
 1/21/22  4:50a   41.7   41.9   41.7    95   40.4   2.0     E   0.33   6.0   ESE   41.7   41.8   41.8   38.4  30.585  0.00  0.00     0     0.00      0     0.0  0.00   0.0   0.162   0.000   67.7    50   48.4   66.4   9.30  .0761    0.000   203    7    100.0   10 
 1/21/22  5:00a   41.6   41.7   41.5    95   40.3   2.0     E   0.33   4.0   ENE   41.6   41.7   41.7   38.3  30.577  0.00  0.00     0     0.00      0     0.0  0.00   0.0   0.163   0.000   67.7    50   48.4   66.4   9.30  .0760    0.000   204    7    100.0   10 
 1/21/22  5:10a   41.1   41.5   41.1    95   39.8   4.0     E   0.67   9.0    SE   38.6   41.2   38.7   35.3  30.575  0.00  0.00     0     0.00      0     0.0  0.00   0.0   0.166   0.000   67.6    50   48.3   66.3   9.30  .0761    0.000   202    7    100.0   10 
 1/21/22  5:20a   40.9   41.1   40.9    95   39.6   4.0     E   0.67   8.0     E   38.4   41.0   38.5   35.1  30.572  0.00  0.00     0     0.00      0     0.0  0.00   0.0   0.167   0.000   67.5    50   48.2   66.1   9.30  .0761    0.000   202    7    100.0   10 
 1/21/22  5:30a   40.6   40.9   40.6    96   39.5   4.0     E   0.67   9.0   ESE   38.0   40.7   38.1   34.7  30.569  0.00  0.00     0     0.00      0     0.0  0.00   0.0   0.169   0.000   67.5    50   48.2   66.1   9.30  .0761    0.000   204    7    100.0   10 
 1/21/22  5:40a   40.4   40.6   40.4    96   39.4   5.0     E   0.83  10.0     E   36.9   40.5   37.0   33.6  30.571  0.00  0.00     0     0.00      0     0.0  0.00   0.0   0.171   0.000   67.5    50   48.2   66.1   9.30  .0761    0.000   205    7    100.0   10 
 1/21/22  5:50a   40.3   40.4   40.3    96   39.3   5.0     E   0.83   9.0     E   36.8   40.4   36.9   33.5  30.573  0.00  0.00     0     0.00      0     0.0  0.00   0.0   0.172   0.000   67.7    50   48.4   66.4   9.30  .0760    0.000   199    7    100.0   10 
 1/21/22  6:00a   39.7   40.3   39.7    95   38.4   5.0     E   0.83  11.0     E   36.1   39.8   36.2   32.8  30.567  0.00  0.00     0     0.00      0     0.0  0.00   0.0   0.176   0.000   68.0    50   48.7   66.7   9.29  .0760    0.000   203    7    100.0   10 
 1/21/22  6:10a   39.8   39.8   39.7    96   38.8   4.0     E   0.67   9.0     E   37.1   39.9   37.2   33.8  30.568  0.00  0.00     0     0.00      0     0.0  0.00   0.0   0.175   0.000   68.3    50   48.9   67.0   9.28  .0759    0.000   202    7    100.0   10 
 1/21/22  6:20a   39.9   39.9   39.8    96   38.9   4.0     E   0.67   7.0   ENE   37.2   40.0   37.3   33.9  30.575  0.00  0.00     0     0.00      0     0.0  0.00   0.0   0.174   0.000   68.7    50   49.3   67.3   9.28  .0759    0.000   203    7    100.0   10 
 1/21/22  6:30a   40.0   40.0   39.9    96   39.0   3.0     E   0.50   7.0     E   38.4   40.1   38.5   35.1  30.587  0.00  0.00     0     0.00      0     0.0  0.00   0.0   0.174   0.000   69.0    50   49.6   67.6   9.27  .0758    0.000   204    7    100.0   10 
 1/21/22  6:40a   40.1   40.2   40.0    96   39.1   3.0     E   0.50   6.0     E   38.5   40.2   38.6   35.2  30.592  0.00  0.00     0     0.00      0     0.0  0.00   0.0   0.173   0.000   69.4    50   49.9   67.9   9.26  .0758    0.000   203    7    100.0   10 
 1/21/22  6:50a   40.0   40.3   40.0    96   39.0   1.0     E   0.17   4.0     E   40.0   40.1   40.1   36.7  30.592  0.00  0.00     0     0.00      0     0.0  0.00   0.0   0.174   0.000   69.6    50   50.1   68.0   9.26  .0758    0.000   202    7    100.0   10 
 1/21/22  7:00a   39.8   40.1   39.8    95   38.5   1.0     E   0.17   4.0   ESE   39.8   39.9   39.9   36.5  30.593  0.00  0.00     0     0.00      0     0.0  0.00   0.0   0.175   0.000   69.8    50   50.3   68.2   9.25  .0757    0.000   203    7    100.0   10 
 1/21/22  7:10a   39.7   39.8   39.7    96   38.7   1.0     E   0.17   6.0   ESE   39.7   39.8   39.8   36.4  30.588  0.00  0.00     0     0.00      0     0.0  0.00   0.0   0.176   0.000   70.0    50   50.5   68.3   9.25  .0757    0.000   203    7    100.0   10 
 1/21/22  7:20a   39.7   39.8   39.7    96   38.7   2.0   ENE   0.33   5.0   ENE   39.4   39.8   39.5   36.1  30.586  0.00  0.00     0     0.00      0     0.0  0.00   0.0   0.176   0.000   70.1    50   50.6   68.4   9.25  .0756    0.000   203    7    100.0   10 
 1/21/22  7:30a   39.7   39.8   39.7    96   38.7   3.0     E   0.50   7.0     E   38.0   39.8   38.1   34.7  30.593  0.00  0.00     0     0.00      0     0.0  0.00   0.0   0.176   0.000   70.2    50   50.7   68.6   9.25  .0756    0.000   203    7    100.0   10 
 1/21/22  7:40a   39.7   39.7   39.6    95   38.4   3.0   ENE   0.50   6.0   ESE   38.0   39.8   38.1   34.7  30.596  0.00  0.00     0     0.00      0     0.0  0.00   0.0   0.176   0.000   70.2    50   50.7   68.6   9.25  .0757    0.000   202    7    100.0   10 
 1/21/22  7:50a   39.5   39.7   39.5    95   38.2   2.0     E   0.33   6.0   ESE   39.2   39.5   39.2   35.9  30.596  0.00  0.00     5     0.07      7     0.0  0.00   0.0   0.177   0.000   70.2    50   50.7   68.6   9.25  .0757    0.000   202    7    100.0   10 
 1/21/22  8:00a   39.4   39.5   39.4    96   38.4   2.0     E   0.33   6.0     E   39.1   39.5   39.2   35.9  30.604  0.00  0.00     8     0.11      9     0.0  0.00   0.0   0.178   0.000   70.3    50   50.8   68.7   9.25  .0757    0.000   204    7    100.0   10 
 1/21/22  8:10a   39.5   39.5   39.4    96   38.5   1.0     E   0.17   4.0     E   39.5   39.6   39.6   36.4  30.611  0.00  0.00    11     0.16     12     0.0  0.00   0.0   0.177   0.000   70.3    50   50.8   68.7   9.25  .0757    0.000   203    7    100.0   10 
 1/21/22  8:20a   39.6   39.8   39.5    95   38.3   0.0    NE   0.00   2.0   NNE   39.6   39.7   39.7   36.5  30.613  0.00  0.00    13     0.19     14     0.0  0.00   0.0   0.176   0.000   70.4    50   50.9   68.8   9.25  .0757    0.000   203    7    100.0   10 
 1/21/22  8:30a   39.8   39.9   39.6    96   38.8   0.0   SSE   0.00   1.0   ENE   39.8   39.9   39.9   36.8  30.613  0.00  0.00    17     0.24     19     0.0  0.00   0.0   0.175   0.000   70.5    49   50.4   68.9   9.05  .0757    0.000   203    7    100.0   10 
 1/21/22  8:40a   39.4   39.8   39.4    95   38.1   1.0     E   0.17   2.0   SSE   39.4   39.4   39.4   36.6  30.611  0.00  0.00    27     0.39     37     0.0  0.00   0.0   0.178   0.000   70.6    49   50.5   69.0   9.05  .0756    0.000   202    7    100.0   10 
 1/21/22  8:50a   39.7   39.7   39.3    97   38.9   0.0     E   0.00   2.0     E   39.7   39.8   39.8   37.1  30.615  0.00  0.00    32     0.46     37     0.0  0.00   0.0   0.176   0.000   70.7    49   50.6   69.1   9.05  .0756    0.000   202    7    100.0   10 
 1/21/22  9:00a   39.8   39.9   39.7    96   38.8   1.0     E   0.17   2.0     E   39.8   39.9   39.9   37.1  30.619  0.00  0.00    28     0.40     30     0.0  0.00   0.0   0.175   0.000   70.9    49   50.8   69.4   9.05  .0756    0.000   201    7    100.0   10 
 1/21/22  9:10a   40.0   40.0   39.7    96   39.0   1.0     E   0.17   2.0     E   40.0   40.1   40.1   41.4  30.611  0.00  0.00    85     1.22    190     0.0  0.00   0.0   0.174   0.000   70.9    49   50.8   69.4   9.05  .0756    0.000   203    7    100.0   10 
 1/21/22  9:20a   40.4   40.4   40.0    96   39.4   1.0   ESE   0.17   2.0   ESE   40.4   40.5   40.5   45.9  30.613  0.00  0.00   201     2.88    211     0.0  0.00   0.0   0.171   0.000   71.0    49   50.9   69.5   9.05  .0756    0.000   203    7    100.0   10 
 1/21/22  9:30a   41.0   41.0   40.4    97   40.2   0.0     E   0.00   2.0   ENE   41.0   41.1   41.1   47.3  30.624  0.00  0.00   224     3.21    241     0.0  0.00   0.0   0.167   0.000   71.0    49   50.9   69.5   9.05  .0756    0.000   203    7    100.0   10 
 1/21/22  9:40a   42.0   42.0   41.1    97   41.2   1.0    NE   0.17   4.0   NNE   42.0   42.1   42.1   48.8  30.624  0.00  0.00   241     3.45    250     0.0  0.00   0.0   0.160   0.000   71.0    49   50.9   69.5   9.05  .0756    0.000   203    7    100.0   10 
 1/21/22  9:50a   42.7   42.7   42.0    97   41.9   1.0   ENE   0.17   3.0     E   42.7   42.9   42.9   50.2  30.619  0.00  0.00   262     3.76    271     0.3  0.02   0.5   0.155   0.000   70.9    49   50.8   69.4   9.05  .0756    0.000   203    7    100.0   10 
 1/21/22 10:00a   44.0   44.0   42.8    95   42.7   2.0   ENE   0.33   4.0     E   44.0   44.2   44.2   52.1  30.629  0.00  0.00   282     4.04    292     0.5  0.04   0.6   0.146   0.000   70.9    49   50.8   69.4   9.05  .0756    0.003   203    7    100.0   10 
 1/21/22 10:10a   44.9   44.9   44.0    94   43.3   3.0    NE   0.50   6.0   NNE   43.9   45.1   44.1   52.5  30.642  0.00  0.00   300     4.30    309     0.6  0.04   0.6   0.140   0.000   70.7    49   50.6   69.1   9.05  .0757    0.000   204    7    100.0   10 
 1/21/22 10:20a   45.8   45.8   45.0    94   44.2   2.0    NE   0.33   5.0    NE   45.8   46.0   46.0   54.9  30.649  0.00  0.00   316     4.53    325     0.7  0.05   0.7   0.133   0.000   70.7    48   50.0   69.0   8.86  .0757    0.000   202    7    100.0   10 
 1/21/22 10:30a   46.2   46.3   45.8    93   44.3   3.0    NE   0.50   5.0   ENE   45.4   46.4   45.6   54.7  30.644  0.00  0.00   329     4.72    332     0.7  0.05   0.8   0.131   0.000   70.7    48   50.0   69.0   8.86  .0757    0.000   201    7    100.0   10 
 1/21/22 10:40a   46.1   46.3   46.1    93   44.2   4.0    NE   0.67  11.0   NNE   44.3   46.3   44.5   54.1  30.639  0.00  0.00   346     4.96    357     0.8  0.06   0.8   0.131   0.000   70.8    48   50.1   69.1   8.87  .0757    0.000   205    7    100.0   10 
 1/21/22 10:50a   46.3   46.4   46.0    93   44.4   3.0    NE   0.50   8.0   NNE   45.5   46.5   45.7   55.4  30.640  0.00  0.00   359     5.15    367     0.9  0.06   0.9   0.130   0.000   70.9    48   50.2   69.3   8.87  .0757    0.000   204    7    100.0   10 
 1/21/22 11:00a   46.3   46.5   46.3    93   44.4   4.0    NE   0.67   9.0   NNE   44.6   46.5   44.8   54.8  30.643  0.00  0.00   374     5.36    385     0.9  0.06   1.0   0.130   0.000   70.9    48   50.2   69.3   8.87  .0757    0.006   203    7    100.0   10 
 1/21/22 11:10a   46.9   46.9   46.3    94   45.3   5.0    NE   0.83   9.0     N   44.6   47.2   44.9   55.6  30.645  0.00  0.00   397     5.69    468     1.0  0.07   1.0   0.126   0.000   70.9    48   50.2   69.3   8.87  .0757    0.000   204    7    100.0   10 
 1/21/22 11:20a   47.9   47.9   46.9    94   46.3   3.0   ENE   0.50   8.0   ENE   47.3   48.3   47.7   59.0  30.644  0.00  0.00   419     6.01    436     1.0  0.07   1.1   0.119   0.000   70.9    48   50.2   69.3   8.87  .0757    0.000   203    7    100.0   10 
 1/21/22 11:30a   48.2   48.5   47.9    92   46.0   3.0    NE   0.50   9.0     N   47.6   48.5   47.9   58.7  30.635  0.00  0.00   408     5.85    413     1.1  0.08   1.1   0.117   0.000   70.9    48   50.2   69.3   8.87  .0757    0.000   203    7    100.0   10 
 1/21/22 11:40a   47.8   48.2   47.7    92   45.6   4.0     N   0.67   8.0   NNE   46.4   48.1   46.7   57.7  30.628  0.00  0.00   419     6.01    445     1.1  0.08   1.2   0.119   0.000   70.9    48   50.2   69.3   8.87  .0757    0.000   204    7    100.0   10 
 1/21/22 11:50a   48.2   48.2   47.8    93   46.3   4.0   NNE   0.67   8.0   NNE   46.8   48.5   47.1   57.8  30.620  0.00  0.00   412     5.91    424     1.2  0.09   1.2   0.117   0.000   70.9    48   50.2   69.3   8.87  .0756    0.000   204    7    100.0   10 
 1/21/22 12:00p   48.1   48.5   48.1    91   45.6   5.0     N   0.83   9.0    NW   46.0   48.3   46.2   56.9  30.612  0.00  0.00   413     5.92    432     1.2  0.09   1.2   0.117   0.000   71.0    48   50.3   69.4   8.87  .0756    0.007   203    7    100.0   10 
 1/21/22 12:10p   48.7   48.7   48.1    92   46.5   7.0   NNE   1.17  11.0   NNE   45.6   49.1   46.0   57.0  30.612  0.00  0.00   428     6.14    443     1.2  0.09   1.2   0.113   0.000   71.1    48   50.4   69.6   8.87  .0756    0.000   202    7    100.0   10 
 1/21/22 12:20p   49.5   49.5   48.6    91   47.0   5.0    NE   0.83  10.0   NNE   47.6   49.8   47.9   59.2  30.601  0.00  0.00   430     6.16    446     1.2  0.09   1.2   0.108   0.000   71.1    48   50.4   69.6   8.87  .0755    0.000   203    7    100.0   10 
 1/21/22 12:30p   49.4   49.8   49.4    89   46.3   6.0   NNE   1.00  11.0   NNE   47.0   49.7   47.3   55.2  30.599  0.00  0.00   302     4.33    438     1.1  0.08   1.2   0.108   0.000   71.1    48   50.4   69.6   8.87  .0755    0.000   204    7    100.0   10 
 1/21/22 12:40p   49.1   49.4   48.9    90   46.3   6.0   NNE   1.00  11.0     N   46.6   49.4   46.9   53.8  30.598  0.00  0.00   257     3.68    533     1.1  0.08   1.2   0.110   0.000   71.2    48   50.5   69.7   8.87  .0755    0.000   205    7    100.0   10 
 1/21/22 12:50p   49.8   49.8   49.0    89   46.7   8.0   NNE   1.33  13.0   NNE   46.3   50.1   46.6   60.6  30.590  0.00  0.00   528     7.57    570     1.2  0.09   1.3   0.106   0.000   71.3    48   50.6   69.9   8.88  .0755    0.000   203    7    100.0   10 
 1/21/22  1:00p   50.3   50.3   49.7    89   47.2   7.0   NNE   1.17  13.0   NNE   47.6   50.5   47.8   61.9  30.582  0.00  0.00   506     7.25    526     1.2  0.09   1.2   0.102   0.000   71.4    48   50.7   70.0   8.88  .0754    0.008   203    7    100.0   10 
 1/21/22  1:10p   50.3   50.3   50.2    87   46.6   8.0   NNE   1.33  12.0   NNE   46.9   50.5   47.1   60.8  30.581  0.00  0.00   503     7.21    520     1.2  0.09   1.2   0.102   0.000   71.6    48   50.9   70.3   8.88  .0754    0.000   203    7    100.0   10 
 1/21/22  1:20p   51.3   51.3   50.3    86   47.3   7.0    NE   1.17  11.0    NE   48.8   51.3   48.8   64.9  30.575  0.00  0.00   549     7.87    555     1.2  0.09   1.2   0.095   0.000   71.6    48   50.9   70.3   8.88  .0754    0.000   205    7    100.0   10 
 1/21/22  1:30p   51.9   51.9   51.2    85   47.5   5.0   NNE   0.83  11.0     N   50.5   51.9   50.5   65.0  30.570  0.00  0.00   487     6.98    547     1.1  0.08   1.2   0.091   0.000   71.6    49   51.4   70.4   9.05  .0754    0.000   203    7    100.0   10 
 1/21/22  1:40p   50.7   51.9   50.7    86   46.7   8.0   NNE   1.33  14.0   NNE   47.3   50.8   47.4   58.7  30.567  0.00  0.00   410     5.88    422     1.1  0.08   1.1   0.099   0.000   71.7    49   51.5   70.5   9.05  .0753    0.000   204    7    100.0   10 
 1/21/22  1:50p   51.3   51.4   50.6    86   47.3   7.0    NE   1.17  15.0   NNE   48.8   51.3   48.8   60.2  30.559  0.00  0.00   393     5.63    427     1.0  0.07   1.0   0.095   0.000   71.8    49   51.6   70.7   9.05  .0753    0.000   204    7    100.0   10 
 1/21/22  2:00p   51.2   51.4   51.1    85   46.8   8.0   NNE   1.33  14.0    NE   47.9   51.2   47.9   58.8  30.558  0.00  0.00   384     5.50    403     1.0  0.07   1.0   0.096   0.000   71.9    49   51.7   70.9   9.05  .0753    0.009   202    7    100.0   10 
 1/21/22  2:10p   51.5   51.6   51.2    85   47.1   7.0   NNE   1.17  13.0   NNE   49.0   51.5   49.0   59.4  30.554  0.00  0.00   350     5.02    360     0.9  0.06   0.9   0.094   0.000   72.1    50   52.4   71.2   9.25  .0752    0.000   204    7    100.0   10 
 1/21/22  2:20p   51.0   51.5   50.9    86   47.0   8.0   NNE   1.33  14.0     N   47.7   51.0   47.7   56.8  30.553  0.00  0.00   323     4.63    339     0.8  0.06   0.8   0.097   0.000   72.2    50   52.5   71.4   9.25  .0752    0.000   200    7    100.0   10 
 1/21/22  2:30p   51.1   51.1   50.8    86   47.1   8.0   NNE   1.33  13.0     N   47.8   51.1   47.8   56.5  30.550  0.00  0.00   303     4.34    313     0.7  0.05   0.8   0.097   0.000   72.4    50   52.7   71.7   9.25  .0752    0.000   203    7    100.0   10 
 1/21/22  2:40p   50.9   51.1   50.9    86   46.9   9.0   NNE   1.50  14.0   NNE   47.0   51.0   47.1   55.5  30.550  0.00  0.00   299     4.29    308     0.7  0.05   0.7   0.098   0.000   72.5    51   53.3   71.9   9.40  .0751    0.000   203    7    100.0   10 
 1/21/22  2:50p   51.0   51.0   50.8    86   47.0   8.0   NNE   1.33  14.0   NNE   47.7   51.0   47.7   56.0  30.547  0.00  0.00   280     4.01    294     0.6  0.04   0.6   0.097   0.000   72.6    51   53.4   72.0   9.40  .0751    0.000   203    7    100.0   10 
 1/21/22  3:00p   50.8   51.0   50.8    86   46.8  10.0     N   1.67  15.0   NNE   46.3   50.9   46.4   53.7  30.550  0.00  0.00   262     3.76    272     0.5  0.04   0.6   0.099   0.000   72.7    51   53.5   72.2   9.40  .0751    0.006   204    7    100.0   10 
 1/21/22  3:10p   51.6   51.7   50.7    86   47.5   7.0   NNE   1.17  13.0   NNE   49.1   51.6   49.1   57.2  30.549  0.00  0.00   252     3.61    255     0.5  0.04   0.5   0.093   0.000   72.9    51   53.7   72.5   9.39  .0750    0.000   203    7    100.0   10 
 1/21/22  3:20p   51.8   51.8   51.4    86   47.7   7.0   NNE   1.17  14.0   NNE   49.4   51.8   49.4   51.2  30.553  0.00  0.00   235     3.37    248     0.0  0.00   0.0   0.092   0.000   73.1    51   53.9   72.7   9.39  .0750    0.000   202    7    100.0   10 
 1/21/22  3:30p   51.9   51.9   51.6    85   47.5   7.0   NNE   1.17  15.0   NNE   49.5   51.9   49.5   50.7  30.557  0.00  0.00   206     2.95    220     0.0  0.00   0.0   0.091   0.000   73.2    51   54.0   72.8   9.39  .0750    0.000   201    7    100.0   10 
 1/21/22  3:40p   51.4   52.0   51.4    86   47.4   9.0   NNE   1.50  15.0     N   47.5   51.4   47.5   48.0  30.558  0.00  0.00   176     2.52    188     0.0  0.00   0.0   0.094   0.000   73.3    51   54.1   73.0   9.38  .0750    0.000   203    7    100.0   10 
 1/21/22  3:50p   51.7   51.8   51.4    86   47.6   7.0   NNE   1.17  14.0   NNE   49.2   51.7   49.2   49.3  30.558  0.00  0.00   153     2.19    163     0.0  0.00   0.0   0.092   0.000   73.4    50   53.6   73.0   9.25  .0750    0.000   204    7    100.0   10 
 1/21/22  4:00p   50.7   51.6   50.6    86   46.7   9.0   NNE   1.50  16.0   NNE   46.7   50.8   46.8   46.3  30.558  0.00  0.00   125     1.79    134     0.0  0.00   0.0   0.099   0.000   73.4    50   53.6   73.0   9.25  .0750    0.004   202    7    100.0   10 
Email: AdamSPAM@StormwatchersRetreat.com (To send me email remove the word 'SPAM' from my email address.)